Time;durP1;ratioP1;P1;durP2;ratioP2;P2;SDS_P1;SDS_P2;PMS_P1;PMS_P2;Temp;Humidity;BMP_temperature;BMP_pressure;BME280_temperature;BME280_humidity;BME280_pressure;Samples;Min_cycle;Max_cycle;Signal;HPM_P1;HPM_P2
2023/12/23 00:01:28;;;;;;;6.77;2.20;;;;;;;9.45;100.00;99885.19;5077559;28;20782;-78
2023/12/23 00:03:54;;;;;;;6.13;2.37;;;;;;;9.49;100.00;99880.88;5075737;28;20189;-76
2023/12/23 00:06:19;;;;;;;6.90;2.60;;;;;;;9.46;100.00;99881.75;5071361;28;20193;-77
2023/12/23 00:08:44;;;;;;;5.63;2.23;;;;;;;9.48;100.00;99898.97;5074172;28;20228;-77
2023/12/23 00:11:09;;;;;;;4.50;2.00;;;;;;;9.43;100.00;99899.00;5073914;28;20716;-77
2023/12/23 00:13:35;;;;;;;6.40;1.93;;;;;;;9.44;100.00;99895.56;5074766;28;20284;-77
2023/12/23 00:16:00;;;;;;;6.07;2.30;;;;;;;9.41;100.00;99896.47;5074332;28;20188;-77
2023/12/23 00:18:25;;;;;;;5.17;2.13;;;;;;;9.43;100.00;99896.44;5076502;28;20220;-77
2023/12/23 00:20:51;;;;;;;4.43;2.03;;;;;;;9.43;100.00;99899.00;5073895;28;20201;-77
2023/12/23 00:23:16;;;;;;;4.97;2.00;;;;;;;9.40;100.00;99919.69;5075903;28;20288;-77
2023/12/23 00:25:42;;;;;;;5.60;2.37;;;;;;;9.41;100.00;99905.91;5074767;28;20565;-77
2023/12/23 00:28:07;;;;;;;5.07;2.30;;;;;;;9.37;100.00;99919.75;5072390;28;20196;-77
2023/12/23 00:30:32;;;;;;;6.27;2.53;;;;;;;9.36;100.00;99930.97;5074287;28;20998;-77
2023/12/23 00:32:58;;;;;;;5.47;2.53;;;;;;;9.30;100.00;99922.38;5074467;28;20193;-77
2023/12/23 00:35:23;;;;;;;4.60;1.80;;;;;;;9.30;100.00;99926.72;5073207;28;20224;-80
2023/12/23 00:37:49;;;;;;;5.77;2.30;;;;;;;9.32;100.00;99931.84;5075537;28;20628;-78
2023/12/23 00:40:14;;;;;;;5.23;2.10;;;;;;;9.29;100.00;99938.75;5078224;28;20203;-76
2023/12/23 00:42:40;;;;;;;4.73;2.17;;;;;;;9.24;100.00;99935.34;5078615;28;20242;-77
2023/12/23 00:45:06;;;;;;;4.43;2.17;;;;;;;9.25;100.00;99943.97;5074060;28;20185;-77
2023/12/23 00:47:32;;;;;;;6.57;2.40;;;;;;;9.20;100.00;99941.44;5077299;28;20692;-78
2023/12/23 00:49:57;;;;;;;5.77;2.60;;;;;;;9.23;100.00;99945.69;5078393;28;20216;-77
2023/12/23 00:52:22;;;;;;;7.83;2.57;;;;;;;9.19;100.00;99949.16;5080177;28;20197;-77
2023/12/23 00:54:48;;;;;;;6.93;2.80;;;;;;;9.20;100.00;99950.88;5077608;28;20292;-77
2023/12/23 00:57:13;;;;;;;5.30;2.20;;;;;;;9.14;100.00;99956.97;5074595;28;20196;-77
2023/12/23 00:59:39;;;;;;;5.43;2.10;;;;;;;9.11;100.00;99973.34;5078340;28;20992;-78
2023/12/23 01:02:04;;;;;;;5.47;1.80;;;;;;;9.10;100.00;99978.50;5082002;28;20188;-77
2023/12/23 01:04:29;;;;;;;4.43;2.33;;;;;;;9.14;100.00;99990.53;5079205;28;20185;-77
2023/12/23 01:06:55;;;;;;;3.60;2.00;;;;;;;9.10;100.00;99987.13;5071843;28;20189;-76
2023/12/23 01:09:20;;;;;;;4.40;2.00;;;;;;;9.09;100.00;99995.72;5075768;28;20242;-76
2023/12/23 01:11:45;;;;;;;6.17;2.37;;;;;;;9.08;100.00;99990.56;5078930;28;20660;-78
2023/12/23 01:14:11;;;;;;;6.50;2.40;;;;;;;9.07;100.00;99988.88;5077221;28;20236;-77
2023/12/23 01:16:36;;;;;;;4.67;1.93;;;;;;;9.06;100.00;99993.16;5081706;28;20187;-78
2023/12/23 01:19:01;;;;;;;5.07;2.13;;;;;;;9.08;100.00;99988.84;5075910;28;20201;-78
2023/12/23 01:21:27;;;;;;;5.37;1.90;;;;;;;9.09;100.00;100003.47;5075450;28;20184;-76
2023/12/23 01:23:52;;;;;;;3.30;2.00;;;;;;;9.12;100.00;100003.44;5069034;28;20175;-76
2023/12/23 01:26:17;;;;;;;3.63;1.83;;;;;;;9.11;100.00;100004.31;5077726;28;20199;-78
2023/12/23 01:28:43;;;;;;;5.77;2.37;;;;;;;9.15;100.00;100005.16;5077723;28;20204;-77
2023/12/23 01:31:08;;;;;;;6.23;2.40;;;;;;;9.14;100.00;100004.31;5076493;28;20181;-76
2023/12/23 01:33:34;;;;;;;4.90;2.50;;;;;;;9.11;100.00;100003.44;5078636;28;20224;-77
2023/12/23 01:35:59;;;;;;;7.03;2.30;;;;;;;9.13;100.00;100019.78;5079272;28;20219;-76
2023/12/23 01:38:25;;;;;;;5.63;2.50;;;;;;;9.11;100.00;100029.25;5077872;28;20191;-77
2023/12/23 01:40:50;;;;;;;5.27;2.30;;;;;;;9.11;100.00;100017.22;5079518;28;20181;-77
2023/12/23 01:43:15;;;;;;;4.33;2.30;;;;;;;9.10;100.00;100018.09;5071467;28;20206;-78
2023/12/23 01:45:40;;;;;;;5.87;2.10;;;;;;;9.12;100.00;100011.19;5076868;28;20186;-77
2023/12/23 01:48:09;;;;;;;8.60;2.60;;;;;;;9.09;100.00;100013.78;5076656;28;20188;-77
2023/12/23 01:50:35;;;;;;;6.03;2.43;;;;;;;9.11;100.00;100019.81;5076393;28;20190;-77
2023/12/23 01:53:01;;;;;;;5.33;2.60;;;;;;;9.13;100.00;100022.38;5073121;28;20281;-77
2023/12/23 01:55:27;;;;;;;5.63;2.63;;;;;;;9.11;100.00;100024.97;5072127;28;20893;-78
2023/12/23 01:57:54;;;;;;;5.57;2.47;;;;;;;9.14;100.00;100026.66;5074504;28;20177;-78
2023/12/23 02:00:20;;;;;;;5.70;2.30;;;;;;;9.16;100.00;100027.50;5073194;28;20201;-77
2023/12/23 02:02:47;;;;;;;4.50;1.93;;;;;;;9.12;100.00;100025.81;5074192;28;20188;-78
2023/12/23 02:05:12;;;;;;;6.10;2.40;;;;;;;9.10;100.00;100027.53;5067092;28;20203;-79
2023/12/23 02:07:38;;;;;;;5.67;2.40;;;;;;;9.12;100.00;100031.84;5077998;28;20302;-77
2023/12/23 02:10:04;;;;;;;4.67;2.07;;;;;;;9.10;100.00;100032.72;5077871;28;20215;-77
2023/12/23 02:12:35;;;;;;;7.50;2.53;;;;;;;9.12;100.00;100031.84;5078914;28;20190;-77
2023/12/23 02:15:07;;;;;;;6.73;2.13;;;;;;;9.08;100.00;100029.28;5074941;28;20212;-77
2023/12/23 02:17:32;;;;;;;5.70;1.93;;;;;;;9.08;100.00;100017.25;5078163;28;20249;-77
2023/12/23 02:19:58;;;;;;;4.57;2.07;;;;;;;9.09;100.00;100023.25;5073795;28;20662;-78
2023/12/23 02:22:23;;;;;;;6.07;2.00;;;;;;;9.07;100.00;100025.00;5076056;28;20185;-77
2023/12/23 02:24:48;;;;;;;5.20;2.33;;;;;;;9.08;100.00;100024.13;5076778;28;20181;-77
2023/12/23 02:27:18;;;;;;;6.43;2.20;;;;;;;9.10;100.00;100027.53;5077189;28;20180;-76
2023/12/23 02:29:45;;;;;;;3.83;2.10;;;;;;;9.09;100.00;100036.16;5076552;28;20201;-77
2023/12/23 02:32:12;;;;;;;5.53;2.27;;;;;;;9.09;100.00;100039.59;5074569;28;20184;-78
2023/12/23 02:34:40;;;;;;;5.43;2.47;;;;;;;9.07;100.00;100030.19;5077613;28;20209;-78
2023/12/23 02:37:05;;;;;;;4.73;2.20;;;;;;;9.09;100.00;100029.28;5076139;28;20181;-77
2023/12/23 02:39:30;;;;;;;5.90;2.00;;;;;;;9.05;100.00;100037.91;5081853;28;21155;-78
2023/12/23 02:41:56;;;;;;;4.13;2.00;;;;;;;9.03;100.00;100039.63;5079888;28;20194;-77
2023/12/23 02:44:22;;;;;;;6.13;2.33;;;;;;;9.03;100.00;100044.81;5084751;28;20269;-77
2023/12/23 02:46:47;;;;;;;4.93;2.50;;;;;;;9.01;100.00;100028.47;5077400;28;21459;-79
2023/12/23 02:49:12;;;;;;;4.97;1.90;;;;;;;9.03;100.00;100031.91;5079181;28;20204;-77
2023/12/23 02:51:38;;;;;;;4.53;1.93;;;;;;;9.02;100.00;100037.09;5080054;28;20212;-76
2023/12/23 02:54:03;;;;;;;6.57;2.23;;;;;;;9.01;100.00;100023.31;5073417;28;20968;-77
2023/12/23 02:56:29;;;;;;;5.23;2.57;;;;;;;9.04;100.00;100025.88;5080043;28;20185;-78
2023/12/23 02:58:54;;;;;;;4.30;2.37;;;;;;;8.99;100.00;100036.22;5077546;28;20204;-78
2023/12/23 03:01:20;;;;;;;5.80;1.90;;;;;;;8.98;100.00;100038.84;5079430;28;20743;-78
2023/12/23 03:03:45;;;;;;;3.23;2.00;;;;;;;8.97;100.00;100042.28;5074049;28;20185;-76
2023/12/23 03:06:15;;;;;;;5.40;2.10;;;;;;;8.96;100.00;100045.72;5080081;28;20189;-77
2023/12/23 03:08:40;;;;;;;6.20;2.30;;;;;;;8.98;100.00;100044.00;5077025;28;20204;-77
2023/12/23 03:11:06;;;;;;;4.03;1.90;;;;;;;8.97;100.00;100039.69;5077869;28;20662;-77
2023/12/23 03:13:31;;;;;;;5.13;1.77;;;;;;;8.95;100.00;100042.28;5077914;28;20197;-77
2023/12/23 03:15:56;;;;;;;2.40;1.90;;;;;;;8.94;100.00;100039.72;5077450;28;20251;-77
2023/12/23 03:18:22;;;;;;;6.13;2.13;;;;;;;8.97;100.00;100032.78;5077010;28;20183;-77
2023/12/23 03:20:47;;;;;;;4.40;2.10;;;;;;;8.94;100.00;100035.38;5078080;28;20924;-78
2023/12/23 03:23:13;;;;;;;6.90;2.00;;;;;;;8.90;100.00;100030.25;5079182;28;20654;-77
2023/12/23 03:25:38;;;;;;;6.00;2.20;;;;;;;8.91;100.00;100026.81;5076582;28;20204;-77
2023/12/23 03:28:04;;;;;;;3.63;2.10;;;;;;;8.88;100.00;100027.72;5070490;28;20558;-76
2023/12/23 03:30:29;;;;;;;5.20;2.20;;;;;;;8.85;100.00;100038.88;5076516;28;20208;-79
2023/12/23 03:32:54;;;;;;;4.67;2.17;;;;;;;8.91;100.00;100029.41;5072656;28;20807;-77
2023/12/23 03:35:19;;;;;;;4.83;2.33;;;;;;;8.85;100.00;100038.03;5080504;28;20743;-77
2023/12/23 03:37:45;;;;;;;4.77;2.13;;;;;;;8.84;100.00;100034.63;5077946;28;20215;-77
2023/12/23 03:40:11;;;;;;;3.90;2.03;;;;;;;8.80;100.00;100026.88;5077518;28;20223;-78
2023/12/23 03:42:38;;;;;;;4.07;1.90;;;;;;;8.84;100.00;100003.66;5079451;28;20326;-77
2023/12/23 03:45:05;;;;;;;3.97;1.70;;;;;;;8.85;100.00;100007.91;5074422;28;20190;-77
2023/12/23 03:47:30;;;;;;;3.50;1.63;;;;;;;8.81;100.00;100011.41;5080253;28;20307;-76
2023/12/23 03:49:56;;;;;;;4.23;1.97;;;;;;;8.83;100.00;100006.22;5073415;28;20782;-77
2023/12/23 03:52:21;;;;;;;3.63;1.70;;;;;;;8.83;100.00;100013.97;5078119;28;20188;-77
2023/12/23 03:54:47;;;;;;;3.70;1.97;;;;;;;8.84;100.00;100020.84;5078470;28;20321;-77
2023/12/23 03:57:12;;;;;;;3.43;2.20;;;;;;;8.92;100.00;100007.88;5073172;28;20199;-77
2023/12/23 03:59:41;;;;;;;4.57;1.60;;;;;;;8.89;100.00;100011.34;5075245;28;20217;-78
2023/12/23 04:02:06;;;;;;;3.80;1.93;;;;;;;8.89;100.00;100002.75;5076507;28;20222;-78
2023/12/23 04:04:32;;;;;;;4.13;2.20;;;;;;;8.89;100.00;99997.59;5070868;28;20217;-77
2023/12/23 04:06:58;;;;;;;6.40;1.97;;;;;;;8.91;100.00;99988.97;5078850;28;20750;-78
2023/12/23 04:09:23;;;;;;;4.70;1.90;;;;;;;8.89;100.00;99995.88;5075594;28;20209;-78
2023/12/23 04:11:48;;;;;;;5.30;1.90;;;;;;;8.91;100.00;99998.44;5069612;28;20189;-76
2023/12/23 04:14:14;;;;;;;5.03;2.10;;;;;;;8.92;100.00;100000.16;5076475;28;20225;-77
2023/12/23 04:16:40;;;;;;;3.60;1.53;;;;;;;8.92;100.00;99998.44;5072904;28;20226;-76
2023/12/23 04:19:05;;;;;;;4.10;1.70;;;;;;;8.90;100.00;99996.72;5076917;28;20646;-78
2023/12/23 04:21:31;;;;;;;2.90;1.53;;;;;;;8.87;100.00;99992.44;5076059;28;20191;-77
2023/12/23 04:23:58;;;;;;;2.07;1.37;;;;;;;8.91;100.00;99999.31;5076867;28;20190;-78
2023/12/23 04:26:24;;;;;;;4.00;2.13;;;;;;;8.91;100.00;99994.16;5075165;28;20753;-77
2023/12/23 04:28:49;;;;;;;3.53;1.80;;;;;;;8.91;100.00;99983.81;5078118;28;20295;-77
2023/12/23 04:31:15;;;;;;;3.47;1.67;;;;;;;8.93;100.00;99982.06;5071304;28;20711;-77
2023/12/23 04:33:40;;;;;;;3.47;1.67;;;;;;;8.94;100.00;99986.34;5077032;28;20605;-77
2023/12/23 04:36:06;;;;;;;3.90;1.70;;;;;;;8.95;100.00;99982.91;5075930;28;20201;-79
2023/12/23 04:38:31;;;;;;;3.57;1.80;;;;;;;8.95;100.00;99970.00;5077782;28;20215;-77
2023/12/23 04:40:57;;;;;;;3.33;1.73;;;;;;;8.98;100.00;99987.22;5079843;28;20656;-77
2023/12/23 04:43:22;;;;;;;4.43;1.67;;;;;;;8.98;100.00;99971.72;5075841;28;20315;-78
2023/12/23 04:45:47;;;;;;;4.23;1.90;;;;;;;8.95;100.00;99980.31;5076457;28;20200;-78
2023/12/23 04:48:13;;;;;;;2.10;1.17;;;;;;;9.00;100.00;99964.81;5074503;28;20728;-78
2023/12/23 04:50:38;;;;;;;3.13;1.40;;;;;;;8.93;100.00;99965.72;5081113;28;20183;-77
2023/12/23 04:53:03;;;;;;;3.40;1.60;;;;;;;8.96;100.00;99957.97;5078267;28;20182;-77
2023/12/23 04:55:29;;;;;;;3.93;1.63;;;;;;;8.94;100.00;99957.97;5077467;28;20220;-78
2023/12/23 04:57:54;;;;;;;2.73;1.20;;;;;;;8.94;100.00;99959.69;5072829;28;20267;-78
2023/12/23 05:00:20;;;;;;;1.60;0.97;;;;;;;8.90;100.00;99951.13;5076849;28;20234;-77
2023/12/23 05:02:45;;;;;;;2.53;1.17;;;;;;;8.89;100.00;99946.84;5072275;28;20181;-78
2023/12/23 05:05:10;;;;;;;2.63;1.07;;;;;;;8.84;100.00;99946.00;5073799;28;20184;-77
2023/12/23 05:07:36;;;;;;;2.70;1.03;;;;;;;8.83;100.00;99955.50;5076657;28;20231;-76
2023/12/23 05:10:01;;;;;;;2.73;1.07;;;;;;;8.81;100.00;99951.19;5074058;28;20206;-77
2023/12/23 05:12:26;;;;;;;2.03;0.70;;;;;;;8.79;100.00;99977.00;5075945;28;20666;-77
2023/12/23 05:14:51;;;;;;;1.73;0.70;;;;;;;8.77;100.00;99959.84;5077644;28;20727;-78
2023/12/23 05:17:17;;;;;;;1.27;1.00;;;;;;;8.78;100.00;99959.81;5074493;28;20266;-78
2023/12/23 05:19:43;;;;;;;1.67;0.63;;;;;;;8.78;100.00;99964.97;5078579;28;20857;-77
2023/12/23 05:22:08;;;;;;;1.47;0.70;;;;;;;8.80;100.00;99973.56;5074987;28;20188;-77
2023/12/23 05:24:37;;;;;;;1.27;0.70;;;;;;;8.83;100.00;99973.56;5073447;28;20177;-77
2023/12/23 05:27:03;;;;;;;1.23;0.60;;;;;;;8.84;100.00;99982.13;5073157;28;20206;-77
2023/12/23 05:29:28;;;;;;;1.20;0.70;;;;;;;8.87;100.00;99970.94;5075157;28;20302;-77
2023/12/23 05:31:54;;;;;;;1.40;0.70;;;;;;;8.80;100.00;99973.56;5075174;28;20279;-77
2023/12/23 05:34:19;;;;;;;1.63;0.60;;;;;;;8.76;100.00;99974.44;5075788;28;20205;-76
2023/12/23 05:36:45;;;;;;;0.90;0.60;;;;;;;8.79;100.00;99963.22;5074445;28;20749;-77
2023/12/23 05:39:10;;;;;;;1.93;0.80;;;;;;;8.75;100.00;99974.47;5077547;28;20201;-78
2023/12/23 05:41:35;;;;;;;0.37;0.33;;;;;;;8.71;100.00;99968.44;5076846;28;20671;-79
2023/12/23 05:44:01;;;;;;;1.67;0.80;;;;;;;8.67;100.00;99959.03;5080327;28;20189;-78
2023/12/23 05:46:26;;;;;;;1.40;0.60;;;;;;;8.62;100.00;99966.78;5077249;28;20185;-77
2023/12/23 05:48:51;;;;;;;1.37;0.70;;;;;;;8.55;100.00;99959.97;5075872;28;21314;-76
2023/12/23 05:51:17;;;;;;;0.93;0.60;;;;;;;8.50;100.00;99972.00;5077807;28;20188;-77
2023/12/23 05:53:42;;;;;;;1.17;0.70;;;;;;;8.46;100.00;99960.84;5071328;28;20207;-76
2023/12/23 05:56:08;;;;;;;0.80;0.60;;;;;;;8.47;100.00;99959.97;5076747;28;20201;-79
2023/12/23 05:58:33;;;;;;;2.13;0.90;;;;;;;8.41;100.00;99965.16;5075137;28;20694;-78
2023/12/23 06:00:59;;;;;;;1.67;0.77;;;;;;;8.39;100.00;99956.59;5076245;28;20193;-77
2023/12/23 06:03:24;;;;;;;1.70;0.90;;;;;;;8.38;100.00;99952.28;5075530;28;20196;-77
2023/12/23 06:05:50;;;;;;;1.33;0.77;;;;;;;8.36;100.00;99949.72;5074336;28;20264;-76
2023/12/23 06:08:15;;;;;;;0.97;0.67;;;;;;;8.33;100.00;99952.28;5077642;28;20192;-77
2023/12/23 06:10:40;;;;;;;1.20;0.77;;;;;;;8.26;100.00;99942.91;5079037;28;20197;-78
2023/12/23 06:13:06;;;;;;;2.43;0.80;;;;;;;8.30;100.00;99944.59;5084174;28;20640;-77
2023/12/23 06:15:32;;;;;;;1.43;0.90;;;;;;;8.24;100.00;99953.19;5082259;28;20220;-78
2023/12/23 06:17:57;;;;;;;1.30;0.70;;;;;;;8.22;100.00;99965.25;5078475;28;20199;-76
2023/12/23 06:20:22;;;;;;;2.33;0.90;;;;;;;8.28;100.00;99966.06;5082326;28;20758;-77
2023/12/23 06:22:48;;;;;;;1.97;0.97;;;;;;;8.30;100.00;99969.50;5075611;28;20627;-77
2023/12/23 06:25:13;;;;;;;2.57;0.97;;;;;;;8.29;100.00;99960.94;5081832;28;20187;-77
2023/12/23 06:27:38;;;;;;;1.67;0.97;;;;;;;8.31;100.00;99966.06;5081773;28;20193;-77
2023/12/23 06:30:04;;;;;;;1.20;0.60;;;;;;;8.31;100.00;99966.94;5085076;28;20556;-77
2023/12/23 06:32:30;;;;;;;1.63;1.07;;;;;;;8.38;100.00;99960.88;5083205;28;20193;-78
2023/12/23 06:34:55;;;;;;;1.20;1.00;;;;;;;8.39;100.00;99957.44;5083651;28;20563;-77
2023/12/23 06:37:20;;;;;;;1.90;0.83;;;;;;;8.38;100.00;99953.13;5084306;28;20770;-78
2023/12/23 06:39:46;;;;;;;1.80;0.80;;;;;;;8.39;100.00;99949.69;5085708;28;20213;-78
2023/12/23 06:42:11;;;;;;;1.10;0.77;;;;;;;8.43;100.00;99962.59;5082957;28;20197;-77
2023/12/23 06:44:36;;;;;;;1.10;0.80;;;;;;;8.42;100.00;99969.44;5081272;28;20233;-77
2023/12/23 06:47:02;;;;;;;0.70;0.63;;;;;;;8.46;100.00;99980.63;5082894;28;20567;-77
2023/12/23 06:49:27;;;;;;;1.23;0.70;;;;;;;8.43;100.00;99989.22;5083253;28;20207;-78
2023/12/23 06:51:54;;;;;;;1.50;0.80;;;;;;;8.44;100.00;99987.50;5083547;28;20189;-77
2023/12/23 06:54:19;;;;;;;1.87;0.60;;;;;;;8.43;100.00;99971.16;5078177;28;20680;-77
2023/12/23 06:56:44;;;;;;;1.83;1.00;;;;;;;8.42;100.00;99964.28;5081669;28;20292;-78
2023/12/23 06:59:12;;;;;;;0.93;0.80;;;;;;;8.46;100.00;99978.03;5086316;28;20310;-77
2023/12/23 07:01:39;;;;;;;2.07;1.10;;;;;;;8.42;100.00;99979.75;5083681;28;20711;-77
2023/12/23 07:04:06;;;;;;;1.00;0.63;;;;;;;8.35;100.00;99996.97;5084515;28;20639;-78
2023/12/23 07:06:32;;;;;;;1.77;0.90;;;;;;;8.37;100.00;99997.00;5080965;28;20288;-77
2023/12/23 07:08:58;;;;;;;1.30;0.87;;;;;;;8.38;100.00;99996.97;5082893;28;20627;-79
2023/12/23 07:11:24;;;;;;;2.20;1.03;;;;;;;8.42;100.00;99994.38;5080447;28;20713;-77
2023/12/23 07:13:50;;;;;;;2.97;1.33;;;;;;;8.43;100.00;99994.38;5084144;28;20194;-77
2023/12/23 07:16:16;;;;;;;2.90;0.97;;;;;;;8.42;100.00;99984.91;5082268;28;20191;-77
2023/12/23 07:18:41;;;;;;;1.60;0.93;;;;;;;8.38;100.00;99978.94;5081896;28;20633;-78
2023/12/23 07:21:07;;;;;;;3.00;1.10;;;;;;;8.34;100.00;99973.78;5083462;28;20291;-77
2023/12/23 07:23:32;;;;;;;5.33;4.30;;;;;;;8.32;100.00;99976.38;5083183;28;20202;-78
2023/12/23 07:25:57;;;;;;;1.87;1.30;;;;;;;8.31;100.00;99989.28;5084197;28;20197;-78
2023/12/23 07:28:23;;;;;;;3.53;3.23;;;;;;;8.30;100.00;99985.84;5084489;28;20245;-77
2023/12/23 07:30:48;;;;;;;11.83;6.43;;;;;;;8.34;100.00;100003.00;5080210;28;20180;-77
2023/12/23 07:33:13;;;;;;;11.23;8.83;;;;;;;8.30;100.00;99998.75;5081399;28;20195;-78
2023/12/23 07:35:39;;;;;;;10.77;9.23;;;;;;;8.32;100.00;99980.69;5080874;28;20208;-78
2023/12/23 07:38:05;;;;;;;7.23;5.70;;;;;;;8.37;100.00;99984.94;5081099;28;20197;-78
2023/12/23 07:40:31;;;;;;;9.60;8.57;;;;;;;8.39;100.00;99979.81;5080907;28;20215;-77
2023/12/23 07:42:56;;;;;;;13.17;10.30;;;;;;;8.37;100.00;99974.63;5079645;28;20200;-78
2023/12/23 07:45:23;;;;;;;16.30;12.83;;;;;;;8.36;100.00;99985.81;5083300;28;20671;-78
2023/12/23 07:47:49;;;;;;;6.77;4.10;;;;;;;8.33;100.00;99996.13;5083051;28;20215;-78
2023/12/23 07:50:14;;;;;;;5.20;3.80;;;;;;;8.32;100.00;99993.56;5076371;28;20291;-77
2023/12/23 07:52:40;;;;;;;6.13;4.23;;;;;;;8.32;100.00;99988.41;5078494;28;20698;-77
2023/12/23 07:55:06;;;;;;;5.50;3.70;;;;;;;8.29;100.00;100006.47;5081828;28;20212;-76
2023/12/23 07:57:31;;;;;;;8.43;4.93;;;;;;;8.30;100.00;99995.28;5082204;28;20193;-77
2023/12/23 07:59:57;;;;;;;4.03;3.10;;;;;;;8.27;100.00;99988.44;5081669;28;20269;-78
2023/12/23 08:02:22;;;;;;;3.87;3.03;;;;;;;8.25;100.00;99982.44;5078273;28;20190;-78
2023/12/23 08:04:48;;;;;;;4.93;4.07;;;;;;;8.28;100.00;99991.84;5082062;28;20565;-77
2023/12/23 08:07:13;;;;;;;6.53;5.00;;;;;;;8.26;100.00;99998.75;5082308;28;20211;-77
2023/12/23 08:09:39;;;;;;;1.73;1.30;;;;;;;8.30;100.00;99996.16;5083316;28;20196;-77
2023/12/23 08:12:05;;;;;;;7.47;6.37;;;;;;;8.30;100.00;100011.63;5081209;28;20193;-77
2023/12/23 08:14:30;;;;;;;3.97;2.47;;;;;;;8.34;100.00;99989.25;5081018;28;20208;-77
2023/12/23 08:16:55;;;;;;;5.17;4.13;;;;;;;8.41;100.00;100000.41;5081261;28;20534;-77
2023/12/23 08:19:21;;;;;;;2.53;1.37;;;;;;;8.44;100.00;100000.41;5083762;28;20209;-78
2023/12/23 08:21:46;;;;;;;1.83;1.60;;;;;;;8.42;100.00;100010.69;5083934;28;20234;-77
2023/12/23 08:24:13;;;;;;;4.73;3.50;;;;;;;8.43;100.00;99998.69;5077503;28;20277;-77
2023/12/23 08:26:38;;;;;;;2.13;1.77;;;;;;;8.46;100.00;100004.69;5079865;28;20719;-78
2023/12/23 08:29:04;;;;;;;3.80;2.53;;;;;;;8.52;100.00;100001.25;5078012;28;20207;-78
2023/12/23 08:31:29;;;;;;;2.13;1.97;;;;;;;8.60;100.00;99998.63;5081565;28;21776;-77
2023/12/23 08:33:54;;;;;;;5.13;3.80;;;;;;;8.64;100.00;100010.66;5075967;28;20681;-78
2023/12/23 08:36:20;;;;;;;1.47;1.27;;;;;;;8.65;100.00;100004.63;5078109;28;20225;-77
2023/12/23 08:38:45;;;;;;;2.40;1.23;;;;;;;8.66;100.00;100006.34;5081102;28;20220;-77
2023/12/23 08:41:10;;;;;;;2.23;1.43;;;;;;;8.72;100.00;99992.53;5081217;28;20182;-77
2023/12/23 08:43:36;;;;;;;1.33;1.00;;;;;;;8.77;100.00;100007.13;5080427;28;20251;-77
2023/12/23 08:46:01;;;;;;;1.03;0.60;;;;;;;8.82;100.00;100004.50;5082036;28;20235;-77
2023/12/23 08:48:26;;;;;;;0.73;0.70;;;;;;;8.81;100.00;100000.22;5078618;28;20248;-78
2023/12/23 08:50:52;;;;;;;1.37;0.73;;;;;;;8.83;100.00;99999.34;5077224;28;20181;-78
2023/12/23 08:53:18;;;;;;;1.10;0.90;;;;;;;8.83;100.00;100001.94;5066822;28;20594;-78
2023/12/23 08:55:44;;;;;;;1.77;1.00;;;;;;;8.90;100.00;100002.75;5072836;28;20207;-77
2023/12/23 08:58:10;;;;;;;1.77;0.80;;;;;;;8.89;100.00;100010.47;5073970;28;20208;-77
2023/12/23 09:00:37;;;;;;;1.80;1.10;;;;;;;8.95;100.00;100003.56;5064372;28;20297;-77
2023/12/23 09:03:03;;;;;;;1.20;0.90;;;;;;;9.02;100.00;100011.28;5077772;28;20227;-77
2023/12/23 09:05:28;;;;;;;1.87;0.70;;;;;;;9.06;100.00;100000.91;5081715;28;20184;-77
2023/12/23 09:07:54;;;;;;;1.13;0.60;;;;;;;9.05;100.00;100006.94;5076664;28;20273;-77
2023/12/23 09:10:19;;;;;;;1.03;0.87;;;;;;;9.05;100.00;100016.41;5073001;28;20200;-78
2023/12/23 09:12:44;;;;;;;1.90;1.80;;;;;;;9.11;100.00;100024.09;5073232;28;20201;-78
2023/12/23 09:15:10;;;;;;;2.50;1.87;;;;;;;9.19;100.00;100026.63;5060520;28;20225;-79
2023/12/23 09:17:35;;;;;;;1.77;1.33;;;;;;;9.23;100.00;100016.25;5068452;28;20194;-78
2023/12/23 09:20:04;;;;;;;2.23;1.93;;;;;;;9.26;100.00;100028.31;5074649;28;20211;-78
2023/12/23 09:22:29;;;;;;;1.60;1.10;;;;;;;9.34;100.00;100036.00;5071415;28;20297;-76
2023/12/23 09:24:55;;;;;;;3.63;3.33;;;;;;;9.46;100.00;100038.47;5061392;28;20237;-77
2023/12/23 09:27:20;;;;;;;1.73;1.40;;;;;;;9.47;100.00;100042.78;5072434;28;20194;-78
2023/12/23 09:29:45;;;;;;;3.80;3.50;;;;;;;9.47;100.00;100042.78;5076480;28;20200;-78
2023/12/23 09:32:10;;;;;;;1.20;1.00;;;;;;;9.51;100.00;100062.56;5075208;28;20185;-78
2023/12/23 09:34:36;;;;;;;0.93;0.50;;;;;;;9.41;100.00;100050.56;5074519;28;20206;-78
2023/12/23 09:37:02;;;;;;;0.93;0.70;;;;;;;9.38;100.00;100063.50;5075660;28;20189;-78
2023/12/23 09:39:28;;;;;;;0.90;0.90;;;;;;;9.44;100.00;100053.13;5076599;28;20197;-78
2023/12/23 09:41:54;;;;;;;0.40;0.40;;;;;;;9.44;100.00;100043.66;5075413;28;20185;-77
2023/12/23 09:44:20;;;;;;;0.60;0.50;;;;;;;9.48;100.00;100031.56;5072061;28;20182;-78
2023/12/23 09:46:46;;;;;;;0.47;0.30;;;;;;;9.42;100.00;100045.41;5076030;28;20272;-77
2023/12/23 09:49:11;;;;;;;0.40;0.40;;;;;;;9.45;100.00;100042.75;5072696;28;20216;-77
2023/12/23 09:51:36;;;;;;;1.30;0.30;;;;;;;9.42;100.00;100042.81;5071811;28;20189;-77
2023/12/23 09:54:04;;;;;;;0.60;0.50;;;;;;;9.50;100.00;100044.47;5073330;28;20251;-78
2023/12/23 09:56:29;;;;;;;1.03;0.50;;;;;;;9.44;100.00;100047.94;5074827;28;20182;-77
2023/12/23 09:58:56;;;;;;;0.53;0.40;;;;;;;9.38;100.00;100043.69;5076585;28;20659;-78
2023/12/23 10:01:21;;;;;;;0.67;0.40;;;;;;;9.44;100.00;100028.16;5071217;28;20802;-77
2023/12/23 10:03:47;;;;;;;0.27;0.27;;;;;;;9.44;100.00;100035.91;5077547;28;20198;-78
2023/12/23 10:06:16;;;;;;;0.27;0.23;;;;;;;9.41;100.00;100030.78;5072677;28;20207;-78
2023/12/23 10:08:44;;;;;;;0.33;0.33;;;;;;;9.41;100.00;100027.31;5074808;28;20228;-77
2023/12/23 10:11:10;;;;;;;0.83;0.47;;;;;;;9.43;100.00;100031.63;5083729;28;20180;-77
2023/12/23 10:13:36;;;;;;;0.50;0.33;;;;;;;9.44;100.00;100032.47;5076274;28;20182;-77
2023/12/23 10:16:01;;;;;;;0.20;0.20;;;;;;;9.49;100.00;100035.88;5068254;28;20865;-78
2023/12/23 10:18:27;;;;;;;0.77;0.40;;;;;;;9.51;100.00;100036.72;5073475;28;20194;-78
2023/12/23 10:20:52;;;;;;;0.30;0.23;;;;;;;9.52;100.00;100037.56;5069975;28;20188;-78
2023/12/23 10:23:18;;;;;;;0.40;0.30;;;;;;;9.44;100.00;100040.22;5071840;28;20708;-78
2023/12/23 10:25:44;;;;;;;0.30;0.30;;;;;;;9.41;100.00;100035.06;5074609;28;20636;-77
2023/12/23 10:28:11;;;;;;;0.97;0.70;;;;;;;9.39;100.00;100031.63;5074266;28;20185;-77
2023/12/23 10:30:45;;;;;;;0.60;0.60;;;;;;;9.38;100.00;100029.91;5071931;28;20260;-77
2023/12/23 10:33:14;;;;;;;0.40;0.30;;;;;;;9.39;100.00;100029.91;5074637;28;20267;-78
2023/12/23 10:35:46;;;;;;;0.37;0.30;;;;;;;9.40;100.00;100029.06;5073491;28;20713;-77
2023/12/23 10:38:21;;;;;;;0.40;0.40;;;;;;;9.35;100.00;100015.31;5073561;28;20678;-76
2023/12/23 10:40:55;;;;;;;0.47;0.20;;;;;;;9.36;100.00;100031.69;5071237;28;20623;-78
2023/12/23 10:43:22;;;;;;;0.33;0.30;;;;;;;9.44;100.00;100017.84;5068884;28;20188;-78
2023/12/23 10:45:48;;;;;;;0.50;0.30;;;;;;;9.48;100.00;100012.63;5071976;28;20186;-78
2023/12/23 10:48:16;;;;;;;0.30;0.30;;;;;;;9.46;100.00;100010.06;5072009;28;20177;-77
2023/12/23 10:50:43;;;;;;;0.57;0.27;;;;;;;9.43;100.00;100018.69;5072149;28;20201;-78
2023/12/23 10:53:12;;;;;;;0.30;0.27;;;;;;;9.46;100.00;100016.06;5073442;28;20190;-77
2023/12/23 10:55:39;;;;;;;0.73;0.37;;;;;;;9.38;100.00;100007.53;5075612;28;20264;-78
2023/12/23 10:58:10;;;;;;;0.40;0.40;;;;;;;9.38;100.00;99994.63;5074853;28;20550;-78
2023/12/23 11:00:38;;;;;;;0.27;0.20;;;;;;;9.41;100.00;99999.78;5074964;28;20250;-77
2023/12/23 11:03:04;;;;;;;0.20;0.20;;;;;;;9.38;100.00;100009.25;5073656;28;20181;-78
2023/12/23 11:05:33;;;;;;;0.30;0.30;;;;;;;9.34;100.00;99998.09;5070007;28;20691;-77
2023/12/23 11:08:02;;;;;;;0.67;0.30;;;;;;;9.35;100.00;99989.47;5074361;28;20678;-78
2023/12/23 11:10:30;;;;;;;0.57;0.20;;;;;;;9.45;100.00;99995.44;5073053;28;20721;-77
2023/12/23 11:12:56;;;;;;;0.30;0.30;;;;;;;9.52;100.00;99998.81;5071054;28;20182;-77
2023/12/23 11:15:22;;;;;;;0.53;0.30;;;;;;;9.56;100.00;99985.84;5071736;28;20902;-78
2023/12/23 11:17:47;;;;;;;0.73;0.20;;;;;;;9.52;100.00;99986.78;5074276;28;20181;-77
2023/12/23 11:20:34;;;;;;;0.43;0.20;;;;;;;9.61;100.00;99991.84;5069395;28;20224;-78
2023/12/23 11:23:20;;;;;;;0.87;0.20;;;;;;;9.71;100.00;99986.56;5068248;28;20216;-77